EGNV Airport Information

Runway Information
Runway 05 Length 7516 ft width 148 ft Elevation 115 ft Threshold N/A Heading 48
Runway 23 Length 7516 ft Width 148 ft Elevation 116 ft Threshold N/A Heading 228
Airport Frequencies
Type RADAR Name Durham Rad Frequency 118.85 MHZ
Type ATIS Name ATIS Frequency 132.375 MHZ
Type TWR Name Durham Tow Frequency 119.8 MHZ
Airport Navaids
Airport Weather Information & NOTAM
ADDS - METARS form results

(1825 UTC 05 February 2023)
Data provider http://aviationweather.gov/metar/data/
 
METAR text: EGNV 051820Z 29002KT CAVOK 03/M01 Q1045
Conditions at: EGNV (TEES-SIDE , GB) observed 1820 UTC 05 February 2023
Temperature: 3.0°C (37°F)
Dewpoint: -1.0°C (30°F) [RH = 75%]
Pressure (altimeter): 30.86 inches Hg (1045.0 mb)
Winds: from the WNW (290 degrees) at 2 MPH (2 knots; 1.0 m/s)
Visibility: 6 or more miles (10+ km)
Ceiling: ceiling and visibility are OK
Clouds: unknown
Weather: no significant weather observed at this time

METAR text: EGNV 051750Z VRB03KT CAVOK 03/M01 Q1045
Conditions at: EGNV (TEES-SIDE , GB) observed 1750 UTC 05 February 2023
Temperature: 3.0°C (37°F)
Dewpoint: -1.0°C (30°F) [RH = 75%]
Pressure (altimeter): 30.86 inches Hg (1045.0 mb)
Winds: variable direction winds at 3 MPH (3 knots; 1.5 m/s)
Visibility: 6 or more miles (10+ km)
Ceiling: ceiling and visibility are OK
Clouds: unknown
Weather: no significant weather observed at this time

Forecast for: EGNV (TEES-SIDE , GB)
Text: TAF EGNV 051655Z 0518/0522 21004KT CAVOK
Forecast period: 1800 to 2200 UTC 05 February 2023
Forecast type: FROM: standard forecast or significant change
Winds: from the SSW (210 degrees) at 5 MPH (4 knots; 2.1 m/s)
Visibility: 6 or more miles (10+ km)
Ceiling: unknown
Clouds: missing
Weather: NSW  (no significant weather)